sensor_id;sensor_type;location;lat;lon;timestamp;pressure;altitude;pressure_sealevel;temperature;humidity
36092;BME280;22147;52.388;13.390;2023-02-01T00:02:06;100501.75;;;3.08;100.00
36092;BME280;22147;52.388;13.390;2023-02-01T00:04:35;100491.25;;;3.20;100.00
36092;BME280;22147;52.388;13.390;2023-02-01T00:07:03;100493.72;;;3.22;100.00
36092;BME280;22147;52.388;13.390;2023-02-01T00:09:32;100501.19;;;3.06;100.00
36092;BME280;22147;52.388;13.390;2023-02-01T00:12:00;100500.06;;;3.12;100.00
36092;BME280;22147;52.388;13.390;2023-02-01T00:14:31;100510.78;;;3.14;100.00
36092;BME280;22147;52.388;13.390;2023-02-01T00:17:08;100509.66;;;3.15;100.00
36092;BME280;22147;52.388;13.390;2023-02-01T00:19:38;100509.91;;;3.18;100.00
36092;BME280;22147;52.388;13.390;2023-02-01T00:22:07;100509.16;;;3.02;100.00
36092;BME280;22147;52.388;13.390;2023-02-01T00:24:37;100503.88;;;3.16;100.00
36092;BME280;22147;52.388;13.390;2023-02-01T00:27:07;100512.94;;;3.17;100.00
36092;BME280;22147;52.388;13.390;2023-02-01T00:29:37;100510.13;;;3.27;100.00
36092;BME280;22147;52.388;13.390;2023-02-01T00:32:07;100521.31;;;3.36;100.00
36092;BME280;22147;52.388;13.390;2023-02-01T00:34:37;100516.16;;;3.29;100.00
36092;BME280;22147;52.388;13.390;2023-02-01T00:37:07;100517.03;;;3.19;100.00
36092;BME280;22147;52.388;13.390;2023-02-01T00:39:37;100494.47;;;3.28;100.00
36092;BME280;22147;52.388;13.390;2023-02-01T00:42:08;100489.25;;;3.31;100.00
36092;BME280;22147;52.388;13.390;2023-02-01T00:44:41;100499.94;;;3.33;100.00
36092;BME280;22147;52.388;13.390;2023-02-01T00:47:10;100504.91;;;3.25;100.00
36092;BME280;22147;52.388;13.390;2023-02-01T00:49:38;100505.44;;;3.28;100.00
36092;BME280;22147;52.388;13.390;2023-02-01T00:52:07;100492.38;;;3.14;100.00
36092;BME280;22147;52.388;13.390;2023-02-01T00:54:35;100511.03;;;3.12;100.00
36092;BME280;22147;52.388;13.390;2023-02-01T00:57:03;100506.69;;;3.11;100.00
36092;BME280;22147;52.388;13.390;2023-02-01T00:59:32;100520.66;;;3.10;100.00
36092;BME280;22147;52.388;13.390;2023-02-01T01:02:00;100514.66;;;3.02;100.00
36092;BME280;22147;52.388;13.390;2023-02-01T01:04:29;100521.63;;;2.84;100.00
36092;BME280;22147;52.388;13.390;2023-02-01T01:06:57;100522.97;;;2.87;100.00
36092;BME280;22147;52.388;13.390;2023-02-01T01:09:26;100528.47;;;2.87;100.00
36092;BME280;22147;52.388;13.390;2023-02-01T01:11:54;100516.19;;;2.74;100.00
36092;BME280;22147;52.388;13.390;2023-02-01T01:14:22;100516.50;;;2.62;100.00
36092;BME280;22147;52.388;13.390;2023-02-01T01:16:51;100514.81;;;2.72;100.00
36092;BME280;22147;52.388;13.390;2023-02-01T01:19:19;100513.16;;;2.71;100.00
36092;BME280;22147;52.388;13.390;2023-02-01T01:21:48;100502.50;;;2.64;100.00
36092;BME280;22147;52.388;13.390;2023-02-01T01:24:16;100494.56;;;2.57;100.00
36092;BME280;22147;52.388;13.390;2023-02-01T01:26:45;100499.56;;;2.50;100.00
36092;BME280;22147;52.388;13.390;2023-02-01T01:29:13;100507.97;;;2.69;100.00
36092;BME280;22147;52.388;13.390;2023-02-01T01:31:41;100494.78;;;2.76;100.00
36092;BME280;22147;52.388;13.390;2023-02-01T01:34:10;100497.47;;;2.81;100.00
36092;BME280;22147;52.388;13.390;2023-02-01T01:36:38;100480.38;;;3.05;100.00
36092;BME280;22147;52.388;13.390;2023-02-01T01:39:07;100488.88;;;3.03;100.00
36092;BME280;22147;52.388;13.390;2023-02-01T01:41:35;100477.31;;;3.06;100.00
36092;BME280;22147;52.388;13.390;2023-02-01T01:44:53;100475.69;;;3.05;100.00
36092;BME280;22147;52.388;13.390;2023-02-01T01:47:16;100468.75;;;3.13;100.00
36092;BME280;22147;52.388;13.390;2023-02-01T01:49:46;100463.03;;;3.10;100.00
36092;BME280;22147;52.388;13.390;2023-02-01T01:52:18;100479.25;;;3.06;100.00
36092;BME280;22147;52.388;13.390;2023-02-01T01:54:53;100467.47;;;3.00;100.00
36092;BME280;22147;52.388;13.390;2023-02-01T01:57:38;100475.72;;;3.00;100.00
36092;BME280;22147;52.388;13.390;2023-02-01T02:00:17;100462.03;;;2.95;100.00
36092;BME280;22147;52.388;13.390;2023-02-01T02:05:50;100480.47;;;2.84;100.00
36092;BME280;22147;52.388;13.390;2023-02-01T02:08:23;100484.47;;;3.08;100.00
36092;BME280;22147;52.388;13.390;2023-02-01T02:10:55;100473.47;;;3.08;100.00
36092;BME280;22147;52.388;13.390;2023-02-01T02:13:43;100482.84;;;3.01;100.00
36092;BME280;22147;52.388;13.390;2023-02-01T02:16:45;100488.59;;;3.00;100.00
36092;BME280;22147;52.388;13.390;2023-02-01T02:23:24;100478.34;;;3.21;100.00
36092;BME280;22147;52.388;13.390;2023-02-01T02:26:26;100473.06;;;2.90;100.00
36092;BME280;22147;52.388;13.390;2023-02-01T02:34:57;100470.81;;;2.97;100.00
36092;BME280;22147;52.388;13.390;2023-02-01T02:46:18;100465.59;;;2.96;100.00
36092;BME280;22147;52.388;13.390;2023-02-01T02:56:05;100451.22;;;3.14;100.00
36092;BME280;22147;52.388;13.390;2023-02-01T02:58:59;100446.84;;;3.08;100.00
36092;BME280;22147;52.388;13.390;2023-02-01T03:01:49;100457.41;;;2.85;100.00
36092;BME280;22147;52.388;13.390;2023-02-01T03:04:39;100454.56;;;3.06;100.00
36092;BME280;22147;52.388;13.390;2023-02-01T03:11:02;100437.06;;;2.97;100.00
36092;BME280;22147;52.388;13.390;2023-02-01T03:13:51;100440.50;;;3.13;100.00
36092;BME280;22147;52.388;13.390;2023-02-01T03:16:50;100440.28;;;3.04;100.00
36092;BME280;22147;52.388;13.390;2023-02-01T03:19:34;100431.50;;;3.07;100.00
36092;BME280;22147;52.388;13.390;2023-02-01T03:22:12;100425.72;;;3.09;100.00
36092;BME280;22147;52.388;13.390;2023-02-01T03:25:01;100434.22;;;3.12;100.00
36092;BME280;22147;52.388;13.390;2023-02-01T03:27:49;100435.06;;;3.08;100.00
36092;BME280;22147;52.388;13.390;2023-02-01T03:30:37;100421.69;;;2.96;100.00
36092;BME280;22147;52.388;13.390;2023-02-01T03:33:20;100422.69;;;3.10;100.00
36092;BME280;22147;52.388;13.390;2023-02-01T03:36:14;100404.63;;;3.04;100.00
36092;BME280;22147;52.388;13.390;2023-02-01T03:39:26;100408.13;;;3.15;100.00
36092;BME280;22147;52.388;13.390;2023-02-01T03:42:22;100402.81;;;2.89;100.00
36092;BME280;22147;52.388;13.390;2023-02-01T03:45:27;100412.69;;;2.90;100.00
36092;BME280;22147;52.388;13.390;2023-02-01T03:48:17;100402.84;;;2.84;100.00
36092;BME280;22147;52.388;13.390;2023-02-01T03:50:56;100402.59;;;2.80;100.00
36092;BME280;22147;52.388;13.390;2023-02-01T03:53:33;100392.97;;;2.83;100.00
36092;BME280;22147;52.388;13.390;2023-02-01T03:56:07;100391.66;;;2.75;100.00
36092;BME280;22147;52.388;13.390;2023-02-01T03:58:41;100399.78;;;2.91;100.00
36092;BME280;22147;52.388;13.390;2023-02-01T04:01:11;100392.31;;;2.96;100.00
36092;BME280;22147;52.388;13.390;2023-02-01T04:03:41;100390.81;;;2.80;100.00
36092;BME280;22147;52.388;13.390;2023-02-01T04:06:11;100400.00;;;2.99;100.00
36092;BME280;22147;52.388;13.390;2023-02-01T04:08:41;100397.22;;;3.04;100.00
36092;BME280;22147;52.388;13.390;2023-02-01T04:11:11;100390.66;;;3.00;100.00
36092;BME280;22147;52.388;13.390;2023-02-01T04:13:41;100391.94;;;3.13;100.00
36092;BME280;22147;52.388;13.390;2023-02-01T04:16:12;100386.50;;;3.08;100.00
36092;BME280;22147;52.388;13.390;2023-02-01T04:18:42;100376.03;;;3.10;100.00
36092;BME280;22147;52.388;13.390;2023-02-01T04:21:12;100392.16;;;3.22;100.00
36092;BME280;22147;52.388;13.390;2023-02-01T04:23:42;100389.16;;;3.18;100.00
36092;BME280;22147;52.388;13.390;2023-02-01T04:26:12;100388.22;;;3.33;100.00
36092;BME280;22147;52.388;13.390;2023-02-01T04:28:43;100403.03;;;3.32;100.00
36092;BME280;22147;52.388;13.390;2023-02-01T04:31:17;100400.19;;;3.42;100.00
36092;BME280;22147;52.388;13.390;2023-02-01T04:33:55;100394.25;;;3.30;100.00
36092;BME280;22147;52.388;13.390;2023-02-01T04:36:27;100384.75;;;3.17;100.00
36092;BME280;22147;52.388;13.390;2023-02-01T04:38:57;100396.53;;;3.23;100.00
36092;BME280;22147;52.388;13.390;2023-02-01T04:41:27;100394.06;;;3.21;100.00
36092;BME280;22147;52.388;13.390;2023-02-01T04:43:58;100385.72;;;3.37;100.00
36092;BME280;22147;52.388;13.390;2023-02-01T04:46:28;100388.06;;;3.49;100.00
36092;BME280;22147;52.388;13.390;2023-02-01T04:48:57;100386.72;;;3.46;100.00
36092;BME280;22147;52.388;13.390;2023-02-01T04:51:25;100384.00;;;3.70;100.00
36092;BME280;22147;52.388;13.390;2023-02-01T04:53:53;100388.69;;;3.70;100.00
36092;BME280;22147;52.388;13.390;2023-02-01T04:56:25;100390.44;;;3.60;100.00
36092;BME280;22147;52.388;13.390;2023-02-01T04:58:53;100380.41;;;3.45;100.00
36092;BME280;22147;52.388;13.390;2023-02-01T05:01:23;100378.75;;;3.44;100.00
36092;BME280;22147;52.388;13.390;2023-02-01T05:03:54;100387.78;;;3.50;100.00
36092;BME280;22147;52.388;13.390;2023-02-01T05:06:24;100362.78;;;3.52;100.00
36092;BME280;22147;52.388;13.390;2023-02-01T05:08:54;100375.41;;;3.53;100.00
36092;BME280;22147;52.388;13.390;2023-02-01T05:11:24;100375.03;;;3.64;100.00
36092;BME280;22147;52.388;13.390;2023-02-01T05:14:13;100364.94;;;3.55;100.00
36092;BME280;22147;52.388;13.390;2023-02-01T05:16:43;100360.25;;;3.55;100.00
36092;BME280;22147;52.388;13.390;2023-02-01T05:19:13;100358.28;;;3.32;100.00
36092;BME280;22147;52.388;13.390;2023-02-01T05:21:43;100354.69;;;3.36;100.00
36092;BME280;22147;52.388;13.390;2023-02-01T05:24:13;100352.53;;;3.33;100.00
36092;BME280;22147;52.388;13.390;2023-02-01T05:26:48;100359.78;;;3.48;100.00
36092;BME280;22147;52.388;13.390;2023-02-01T05:29:19;100350.03;;;3.37;100.00
36092;BME280;22147;52.388;13.390;2023-02-01T05:31:49;100343.78;;;3.55;100.00
36092;BME280;22147;52.388;13.390;2023-02-01T05:34:19;100360.84;;;3.52;100.00
36092;BME280;22147;52.388;13.390;2023-02-01T05:36:47;100349.47;;;3.64;100.00
36092;BME280;22147;52.388;13.390;2023-02-01T05:39:14;100343.50;;;3.57;100.00
36092;BME280;22147;52.388;13.390;2023-02-01T05:41:44;100346.59;;;3.50;100.00
36092;BME280;22147;52.388;13.390;2023-02-01T05:44:14;100347.13;;;3.52;100.00
36092;BME280;22147;52.388;13.390;2023-02-01T05:46:44;100345.38;;;3.61;100.00
36092;BME280;22147;52.388;13.390;2023-02-01T05:49:14;100333.50;;;3.66;100.00
36092;BME280;22147;52.388;13.390;2023-02-01T05:51:43;100337.94;;;3.62;100.00
36092;BME280;22147;52.388;13.390;2023-02-01T05:54:11;100344.28;;;3.62;100.00
36092;BME280;22147;52.388;13.390;2023-02-01T05:56:40;100345.34;;;3.66;100.00
36092;BME280;22147;52.388;13.390;2023-02-01T05:59:10;100328.81;;;3.42;100.00
36092;BME280;22147;52.388;13.390;2023-02-01T06:01:38;100329.88;;;3.46;100.00
36092;BME280;22147;52.388;13.390;2023-02-01T06:04:07;100334.97;;;3.58;100.00
36092;BME280;22147;52.388;13.390;2023-02-01T06:06:35;100327.81;;;3.62;100.00
36092;BME280;22147;52.388;13.390;2023-02-01T06:09:04;100324.94;;;3.73;100.00
36092;BME280;22147;52.388;13.390;2023-02-01T06:11:32;100322.00;;;3.64;100.00
36092;BME280;22147;52.388;13.390;2023-02-01T06:14:01;100320.31;;;3.68;100.00
36092;BME280;22147;52.388;13.390;2023-02-01T06:16:31;100320.44;;;3.58;100.00
36092;BME280;22147;52.388;13.390;2023-02-01T06:18:59;100318.38;;;3.44;100.00
36092;BME280;22147;52.388;13.390;2023-02-01T06:21:28;100322.66;;;3.56;100.00
36092;BME280;22147;52.388;13.390;2023-02-01T06:23:56;100318.50;;;3.58;100.00
36092;BME280;22147;52.388;13.390;2023-02-01T06:26:25;100317.72;;;3.53;100.00
36092;BME280;22147;52.388;13.390;2023-02-01T06:28:53;100311.09;;;3.59;100.00
36092;BME280;22147;52.388;13.390;2023-02-01T06:31:22;100317.16;;;3.56;100.00
36092;BME280;22147;52.388;13.390;2023-02-01T06:33:51;100315.00;;;3.53;100.00
36092;BME280;22147;52.388;13.390;2023-02-01T06:36:19;100309.38;;;3.63;100.00
36092;BME280;22147;52.388;13.390;2023-02-01T06:38:50;100303.75;;;3.49;100.00
36092;BME280;22147;52.388;13.390;2023-02-01T06:41:19;100303.56;;;3.40;100.00
36092;BME280;22147;52.388;13.390;2023-02-01T06:43:48;100308.19;;;3.45;100.00
36092;BME280;22147;52.388;13.390;2023-02-01T06:46:16;100323.13;;;3.34;100.00
36092;BME280;22147;52.388;13.390;2023-02-01T06:48:44;100315.28;;;3.51;100.00
36092;BME280;22147;52.388;13.390;2023-02-01T06:51:21;100309.13;;;3.35;100.00
36092;BME280;22147;52.388;13.390;2023-02-01T06:53:53;100310.13;;;3.44;100.00
36092;BME280;22147;52.388;13.390;2023-02-01T06:56:23;100300.84;;;3.40;100.00
36092;BME280;22147;52.388;13.390;2023-02-01T06:58:54;100309.50;;;3.53;100.00
36092;BME280;22147;52.388;13.390;2023-02-01T07:01:21;100291.16;;;3.48;100.00
36092;BME280;22147;52.388;13.390;2023-02-01T07:03:50;100283.47;;;3.45;100.00
36092;BME280;22147;52.388;13.390;2023-02-01T07:06:19;100286.88;;;3.61;100.00
36092;BME280;22147;52.388;13.390;2023-02-01T07:08:47;100290.16;;;3.63;100.00
36092;BME280;22147;52.388;13.390;2023-02-01T07:11:18;100285.59;;;3.53;100.00
36092;BME280;22147;52.388;13.390;2023-02-01T07:13:47;100284.16;;;3.37;100.00
36092;BME280;22147;52.388;13.390;2023-02-01T07:16:20;100278.06;;;3.40;100.00
36092;BME280;22147;52.388;13.390;2023-02-01T07:18:52;100277.72;;;3.46;100.00
36092;BME280;22147;52.388;13.390;2023-02-01T07:21:22;100280.53;;;3.41;100.00
36092;BME280;22147;52.388;13.390;2023-02-01T07:23:52;100280.88;;;3.35;100.00
36092;BME280;22147;52.388;13.390;2023-02-01T07:26:23;100268.38;;;3.47;100.00
36092;BME280;22147;52.388;13.390;2023-02-01T07:28:53;100263.53;;;3.39;100.00
36092;BME280;22147;52.388;13.390;2023-02-01T07:31:23;100263.44;;;3.44;100.00
36092;BME280;22147;52.388;13.390;2023-02-01T07:33:56;100256.16;;;3.59;100.00
36092;BME280;22147;52.388;13.390;2023-02-01T07:36:27;100258.03;;;3.63;100.00
36092;BME280;22147;52.388;13.390;2023-02-01T07:38:57;100249.34;;;3.56;100.00
36092;BME280;22147;52.388;13.390;2023-02-01T07:41:28;100250.38;;;3.60;100.00
36092;BME280;22147;52.388;13.390;2023-02-01T07:43:59;100248.16;;;3.38;100.00
36092;BME280;22147;52.388;13.390;2023-02-01T07:46:29;100252.00;;;3.37;100.00
36092;BME280;22147;52.388;13.390;2023-02-01T07:48:59;100251.25;;;3.32;100.00
36092;BME280;22147;52.388;13.390;2023-02-01T07:51:29;100241.59;;;3.10;100.00
36092;BME280;22147;52.388;13.390;2023-02-01T07:53:59;100243.56;;;3.04;100.00
36092;BME280;22147;52.388;13.390;2023-02-01T07:56:29;100244.44;;;3.00;100.00
36092;BME280;22147;52.388;13.390;2023-02-01T07:59:00;100252.72;;;2.95;100.00
36092;BME280;22147;52.388;13.390;2023-02-01T08:01:31;100238.38;;;2.74;100.00
36092;BME280;22147;52.388;13.390;2023-02-01T08:04:03;100238.13;;;2.70;100.00
36092;BME280;22147;52.388;13.390;2023-02-01T08:06:33;100245.78;;;2.73;100.00
36092;BME280;22147;52.388;13.390;2023-02-01T08:09:06;100238.19;;;2.65;100.00
36092;BME280;22147;52.388;13.390;2023-02-01T08:11:37;100227.94;;;2.76;100.00
36092;BME280;22147;52.388;13.390;2023-02-01T08:14:08;100235.44;;;2.65;100.00
36092;BME280;22147;52.388;13.390;2023-02-01T08:16:36;100230.88;;;2.50;100.00
36092;BME280;22147;52.388;13.390;2023-02-01T08:19:08;100232.25;;;2.53;100.00
36092;BME280;22147;52.388;13.390;2023-02-01T08:21:36;100234.97;;;2.53;100.00
36092;BME280;22147;52.388;13.390;2023-02-01T08:24:09;100237.91;;;2.61;100.00
36092;BME280;22147;52.388;13.390;2023-02-01T08:26:37;100231.63;;;2.61;100.00
36092;BME280;22147;52.388;13.390;2023-02-01T08:29:09;100232.69;;;2.65;100.00
36092;BME280;22147;52.388;13.390;2023-02-01T08:31:40;100229.22;;;2.54;100.00
36092;BME280;22147;52.388;13.390;2023-02-01T08:34:13;100239.66;;;2.52;100.00
36092;BME280;22147;52.388;13.390;2023-02-01T08:36:41;100221.81;;;2.55;100.00
36092;BME280;22147;52.388;13.390;2023-02-01T08:39:11;100227.03;;;2.51;100.00
36092;BME280;22147;52.388;13.390;2023-02-01T08:41:41;100243.47;;;2.56;100.00
36092;BME280;22147;52.388;13.390;2023-02-01T08:44:31;100243.13;;;2.63;100.00
36092;BME280;22147;52.388;13.390;2023-02-01T08:47:03;100236.53;;;2.64;100.00
36092;BME280;22147;52.388;13.390;2023-02-01T08:49:32;100254.38;;;2.61;100.00
36092;BME280;22147;52.388;13.390;2023-02-01T08:52:02;100246.72;;;2.58;100.00
36092;BME280;22147;52.388;13.390;2023-02-01T08:54:39;100256.03;;;2.62;100.00
36092;BME280;22147;52.388;13.390;2023-02-01T08:57:10;100272.09;;;2.74;100.00
36092;BME280;22147;52.388;13.390;2023-02-01T08:59:40;100262.13;;;2.83;100.00
36092;BME280;22147;52.388;13.390;2023-02-01T09:02:13;100259.78;;;2.72;100.00
36092;BME280;22147;52.388;13.390;2023-02-01T09:04:44;100267.75;;;2.68;100.00
36092;BME280;22147;52.388;13.390;2023-02-01T09:07:14;100261.44;;;2.68;100.00
36092;BME280;22147;52.388;13.390;2023-02-01T09:09:46;100276.66;;;2.50;100.00
36092;BME280;22147;52.388;13.390;2023-02-01T09:12:16;100280.97;;;2.61;100.00
36092;BME280;22147;52.388;13.390;2023-02-01T09:14:46;100271.06;;;2.65;100.00
36092;BME280;22147;52.388;13.390;2023-02-01T09:17:16;100269.19;;;2.60;100.00
36092;BME280;22147;52.388;13.390;2023-02-01T09:19:46;100291.00;;;2.76;100.00
36092;BME280;22147;52.388;13.390;2023-02-01T09:22:17;100287.16;;;2.77;100.00
36092;BME280;22147;52.388;13.390;2023-02-01T09:24:47;100303.25;;;2.89;100.00
36092;BME280;22147;52.388;13.390;2023-02-01T09:27:17;100300.78;;;2.87;100.00
36092;BME280;22147;52.388;13.390;2023-02-01T09:29:47;100306.00;;;2.83;100.00
36092;BME280;22147;52.388;13.390;2023-02-01T09:32:23;100294.81;;;2.80;100.00
36092;BME280;22147;52.388;13.390;2023-02-01T09:34:54;100315.09;;;2.84;100.00
36092;BME280;22147;52.388;13.390;2023-02-01T09:37:24;100322.66;;;2.97;100.00
36092;BME280;22147;52.388;13.390;2023-02-01T09:39:54;100319.38;;;2.95;100.00
36092;BME280;22147;52.388;13.390;2023-02-01T09:46:30;100324.91;;;2.90;100.00
36092;BME280;22147;52.388;13.390;2023-02-01T09:49:16;100329.59;;;2.84;100.00
36092;BME280;22147;52.388;13.390;2023-02-01T09:51:54;100329.41;;;2.76;100.00
36092;BME280;22147;52.388;13.390;2023-02-01T09:54:41;100325.72;;;2.91;100.00
36092;BME280;22147;52.388;13.390;2023-02-01T09:57:42;100333.69;;;2.92;100.00
36092;BME280;22147;52.388;13.390;2023-02-01T10:00:29;100336.81;;;3.10;100.00
36092;BME280;22147;52.388;13.390;2023-02-01T10:03:11;100339.19;;;2.87;100.00
36092;BME280;22147;52.388;13.390;2023-02-01T10:09:23;100347.06;;;2.99;100.00
36092;BME280;22147;52.388;13.390;2023-02-01T10:21:58;100346.47;;;3.02;100.00
36092;BME280;22147;52.388;13.390;2023-02-01T10:24:42;100350.56;;;3.04;100.00
36092;BME280;22147;52.388;13.390;2023-02-01T10:27:38;100350.88;;;3.03;100.00
36092;BME280;22147;52.388;13.390;2023-02-01T10:33:26;100347.41;;;3.21;100.00
36092;BME280;22147;52.388;13.390;2023-02-01T10:38:59;100343.50;;;3.28;100.00
36092;BME280;22147;52.388;13.390;2023-02-01T10:41:39;100355.72;;;3.45;100.00
36092;BME280;22147;52.388;13.390;2023-02-01T10:44:17;100358.00;;;3.33;100.00
36092;BME280;22147;52.388;13.390;2023-02-01T10:46:52;100350.69;;;3.23;100.00
36092;BME280;22147;52.388;13.390;2023-02-01T10:49:49;100356.50;;;3.17;100.00
36092;BME280;22147;52.388;13.390;2023-02-01T10:52:44;100347.63;;;2.96;100.00
36092;BME280;22147;52.388;13.390;2023-02-01T10:55:49;100339.50;;;3.15;100.00
36092;BME280;22147;52.388;13.390;2023-02-01T10:58:29;100349.09;;;3.17;100.00
36092;BME280;22147;52.388;13.390;2023-02-01T11:01:08;100343.94;;;3.11;100.00
36092;BME280;22147;52.388;13.390;2023-02-01T11:03:54;100350.16;;;3.21;100.00
36092;BME280;22147;52.388;13.390;2023-02-01T11:06:35;100352.44;;;3.43;100.00
36092;BME280;22147;52.388;13.390;2023-02-01T11:09:11;100334.34;;;3.66;100.00
36092;BME280;22147;52.388;13.390;2023-02-01T11:14:40;100339.69;;;4.25;100.00
36092;BME280;22147;52.388;13.390;2023-02-01T11:17:28;100344.97;;;4.21;100.00
36092;BME280;22147;52.388;13.390;2023-02-01T11:20:17;100338.09;;;4.19;100.00
36092;BME280;22147;52.388;13.390;2023-02-01T11:22:53;100330.50;;;4.11;100.00
36092;BME280;22147;52.388;13.390;2023-02-01T11:25:25;100330.47;;;4.16;100.00
36092;BME280;22147;52.388;13.390;2023-02-01T11:27:56;100334.66;;;4.32;100.00
36092;BME280;22147;52.388;13.390;2023-02-01T11:30:39;100328.84;;;4.34;100.00
36092;BME280;22147;52.388;13.390;2023-02-01T11:33:19;100314.94;;;4.44;100.00
36092;BME280;22147;52.388;13.390;2023-02-01T11:35:53;100299.72;;;4.52;100.00
36092;BME280;22147;52.388;13.390;2023-02-01T11:38:30;100311.91;;;4.64;100.00
36092;BME280;22147;52.388;13.390;2023-02-01T11:41:26;100299.41;;;4.72;100.00
36092;BME280;22147;52.388;13.390;2023-02-01T11:44:22;100293.41;;;4.51;100.00
36092;BME280;22147;52.388;13.390;2023-02-01T11:50:12;100281.34;;;4.66;100.00
36092;BME280;22147;52.388;13.390;2023-02-01T11:56:08;100291.97;;;4.73;100.00
36092;BME280;22147;52.388;13.390;2023-02-01T11:59:21;100283.88;;;4.62;100.00
36092;BME280;22147;52.388;13.390;2023-02-01T12:03:05;100286.41;;;4.59;100.00
36092;BME280;22147;52.388;13.390;2023-02-01T12:10:10;100284.44;;;4.78;100.00
36092;BME280;22147;52.388;13.390;2023-02-01T12:20:24;100275.00;;;5.17;100.00
36092;BME280;22147;52.388;13.390;2023-02-01T12:36:32;100246.56;;;5.36;100.00
36092;BME280;22147;52.388;13.390;2023-02-01T12:39:39;100241.56;;;5.38;100.00
36092;BME280;22147;52.388;13.390;2023-02-01T12:42:29;100223.91;;;5.39;100.00
36092;BME280;22147;52.388;13.390;2023-02-01T12:45:41;100228.91;;;5.37;100.00
36092;BME280;22147;52.388;13.390;2023-02-01T12:51:25;100215.16;;;5.37;100.00
36092;BME280;22147;52.388;13.390;2023-02-01T12:57:31;100202.91;;;5.15;100.00
36092;BME280;22147;52.388;13.390;2023-02-01T13:00:30;100207.59;;;5.28;100.00
36092;BME280;22147;52.388;13.390;2023-02-01T13:06:49;100199.59;;;4.99;100.00
36092;BME280;22147;52.388;13.390;2023-02-01T13:12:47;100215.94;;;5.09;100.00
36092;BME280;22147;52.388;13.390;2023-02-01T13:15:30;100198.72;;;5.04;100.00
36092;BME280;22147;52.388;13.390;2023-02-01T13:18:14;100216.63;;;5.01;100.00
36092;BME280;22147;52.388;13.390;2023-02-01T13:23:28;100221.31;;;5.01;100.00
36092;BME280;22147;52.388;13.390;2023-02-01T13:25:59;100211.63;;;5.03;100.00
36092;BME280;22147;52.388;13.390;2023-02-01T13:34:41;100209.81;;;4.99;100.00
36092;BME280;22147;52.388;13.390;2023-02-01T13:40:36;100207.16;;;5.07;100.00
36092;BME280;22147;52.388;13.390;2023-02-01T13:43:29;100188.22;;;5.06;100.00
36092;BME280;22147;52.388;13.390;2023-02-01T13:46:11;100187.28;;;4.97;100.00
36092;BME280;22147;52.388;13.390;2023-02-01T13:48:54;100184.03;;;5.08;100.00
36092;BME280;22147;52.388;13.390;2023-02-01T13:51:44;100176.28;;;5.10;100.00
36092;BME280;22147;52.388;13.390;2023-02-01T13:54:36;100166.50;;;5.04;100.00
36092;BME280;22147;52.388;13.390;2023-02-01T13:57:42;100162.28;;;4.93;100.00
36092;BME280;22147;52.388;13.390;2023-02-01T14:00:33;100160.47;;;5.02;100.00
36092;BME280;22147;52.388;13.390;2023-02-01T14:08:45;100163.13;;;4.94;100.00
36092;BME280;22147;52.388;13.390;2023-02-01T14:11:44;100166.38;;;4.96;100.00
36092;BME280;22147;52.388;13.390;2023-02-01T14:19:29;100154.44;;;4.73;100.00
36092;BME280;22147;52.388;13.390;2023-02-01T14:24:56;100138.94;;;4.90;100.00
36092;BME280;22147;52.388;13.390;2023-02-01T14:27:35;100120.78;;;4.76;100.00
36092;BME280;22147;52.388;13.390;2023-02-01T14:30:14;100119.19;;;4.75;100.00
36092;BME280;22147;52.388;13.390;2023-02-01T14:32:46;100119.88;;;4.80;100.00
36092;BME280;22147;52.388;13.390;2023-02-01T14:35:26;100114.69;;;4.79;100.00
36092;BME280;22147;52.388;13.390;2023-02-01T14:38:02;100107.03;;;4.76;100.00
36092;BME280;22147;52.388;13.390;2023-02-01T14:40:34;100105.09;;;4.76;100.00
36092;BME280;22147;52.388;13.390;2023-02-01T14:43:08;100101.25;;;4.77;100.00
36092;BME280;22147;52.388;13.390;2023-02-01T14:45:58;100105.72;;;4.73;100.00
36092;BME280;22147;52.388;13.390;2023-02-01T14:51:00;100098.59;;;4.86;100.00
36092;BME280;22147;52.388;13.390;2023-02-01T14:53:35;100095.75;;;4.91;100.00
36092;BME280;22147;52.388;13.390;2023-02-01T14:58:57;100081.06;;;4.82;100.00
36092;BME280;22147;52.388;13.390;2023-02-01T15:01:55;100083.31;;;4.80;100.00
36092;BME280;22147;52.388;13.390;2023-02-01T15:04:27;100089.22;;;4.73;100.00
36092;BME280;22147;52.388;13.390;2023-02-01T15:07:07;100089.31;;;4.68;100.00
36092;BME280;22147;52.388;13.390;2023-02-01T15:09:47;100091.25;;;4.81;100.00
36092;BME280;22147;52.388;13.390;2023-02-01T15:12:28;100100.78;;;4.42;100.00
36092;BME280;22147;52.388;13.390;2023-02-01T15:15:24;100090.75;;;4.00;100.00
36092;BME280;22147;52.388;13.390;2023-02-01T15:17:58;100091.78;;;3.71;100.00
36092;BME280;22147;52.388;13.390;2023-02-01T15:20:33;100079.22;;;3.65;100.00
36092;BME280;22147;52.388;13.390;2023-02-01T15:23:16;100074.09;;;3.39;100.00
36092;BME280;22147;52.388;13.390;2023-02-01T15:25:46;100069.78;;;3.33;100.00
36092;BME280;22147;52.388;13.390;2023-02-01T15:28:17;100077.06;;;3.24;100.00
36092;BME280;22147;52.388;13.390;2023-02-01T15:31:04;100069.94;;;3.23;100.00
36092;BME280;22147;52.388;13.390;2023-02-01T15:33:34;100066.22;;;3.14;100.00
36092;BME280;22147;52.388;13.390;2023-02-01T15:38:43;100064.41;;;3.04;100.00
36092;BME280;22147;52.388;13.390;2023-02-01T15:46:41;100056.94;;;2.85;100.00
36092;BME280;22147;52.388;13.390;2023-02-01T15:49:29;100065.97;;;2.67;100.00